sensor_id;sensor_type;location;lat;lon;timestamp;temperature;humidity
20654;DHT22;21083;50.898;4.902;2023-05-07T00:00:56;16.50;99.90
20654;DHT22;21083;50.898;4.902;2023-05-07T00:03:25;16.60;99.90
20654;DHT22;21083;50.898;4.902;2023-05-07T00:05:52;16.60;99.90
20654;DHT22;21083;50.898;4.902;2023-05-07T00:08:19;16.60;99.90
20654;DHT22;21083;50.898;4.902;2023-05-07T00:10:47;16.60;99.90
20654;DHT22;21083;50.898;4.902;2023-05-07T00:13:14;16.60;99.90
20654;DHT22;21083;50.898;4.902;2023-05-07T00:15:41;16.60;99.90
20654;DHT22;21083;50.898;4.902;2023-05-07T00:18:09;16.60;99.90
20654;DHT22;21083;50.898;4.902;2023-05-07T00:20:36;16.70;99.90
20654;DHT22;21083;50.898;4.902;2023-05-07T00:23:03;16.60;99.90
20654;DHT22;21083;50.898;4.902;2023-05-07T00:25:30;16.70;99.90
20654;DHT22;21083;50.898;4.902;2023-05-07T00:27:57;16.70;99.90
20654;DHT22;21083;50.898;4.902;2023-05-07T00:30:29;16.70;99.90
20654;DHT22;21083;50.898;4.902;2023-05-07T00:32:56;16.60;99.90
20654;DHT22;21083;50.898;4.902;2023-05-07T00:35:24;16.60;99.90
20654;DHT22;21083;50.898;4.902;2023-05-07T00:37:51;16.60;99.90
20654;DHT22;21083;50.898;4.902;2023-05-07T00:40:18;16.60;99.90
20654;DHT22;21083;50.898;4.902;2023-05-07T00:42:46;16.60;99.90
20654;DHT22;21083;50.898;4.902;2023-05-07T00:45:14;16.70;99.90
20654;DHT22;21083;50.898;4.902;2023-05-07T00:47:43;16.70;99.90
20654;DHT22;21083;50.898;4.902;2023-05-07T00:50:10;16.70;99.90
20654;DHT22;21083;50.898;4.902;2023-05-07T00:52:39;16.60;99.90
20654;DHT22;21083;50.898;4.902;2023-05-07T00:55:07;16.60;99.90
20654;DHT22;21083;50.898;4.902;2023-05-07T00:57:36;16.60;99.90
20654;DHT22;21083;50.898;4.902;2023-05-07T01:00:05;16.60;99.90
20654;DHT22;21083;50.898;4.902;2023-05-07T01:02:33;16.60;99.90
20654;DHT22;21083;50.898;4.902;2023-05-07T01:05:00;16.60;99.90
20654;DHT22;21083;50.898;4.902;2023-05-07T01:07:28;16.60;99.90
20654;DHT22;21083;50.898;4.902;2023-05-07T01:09:58;16.50;99.90
20654;DHT22;21083;50.898;4.902;2023-05-07T01:12:25;16.50;99.90
20654;DHT22;21083;50.898;4.902;2023-05-07T01:14:53;16.50;99.90
20654;DHT22;21083;50.898;4.902;2023-05-07T01:17:20;16.40;99.90
20654;DHT22;21083;50.898;4.902;2023-05-07T01:19:47;16.30;99.90
20654;DHT22;21083;50.898;4.902;2023-05-07T01:22:16;16.30;99.90
20654;DHT22;21083;50.898;4.902;2023-05-07T01:24:49;16.30;99.90
20654;DHT22;21083;50.898;4.902;2023-05-07T01:27:16;16.30;99.90
20654;DHT22;21083;50.898;4.902;2023-05-07T01:29:43;16.30;99.90
20654;DHT22;21083;50.898;4.902;2023-05-07T01:32:10;16.30;99.90
20654;DHT22;21083;50.898;4.902;2023-05-07T01:34:39;16.20;99.90
20654;DHT22;21083;50.898;4.902;2023-05-07T01:37:06;16.20;99.90
20654;DHT22;21083;50.898;4.902;2023-05-07T01:39:36;16.30;99.90
20654;DHT22;21083;50.898;4.902;2023-05-07T01:42:04;16.30;99.90
20654;DHT22;21083;50.898;4.902;2023-05-07T01:44:32;16.30;99.90
20654;DHT22;21083;50.898;4.902;2023-05-07T01:47:01;16.30;99.90
20654;DHT22;21083;50.898;4.902;2023-05-07T01:49:28;16.30;99.90
20654;DHT22;21083;50.898;4.902;2023-05-07T01:51:56;16.30;99.90
20654;DHT22;21083;50.898;4.902;2023-05-07T01:54:25;16.30;99.90
20654;DHT22;21083;50.898;4.902;2023-05-07T01:56:55;16.30;99.90
20654;DHT22;21083;50.898;4.902;2023-05-07T01:59:23;16.30;99.90
20654;DHT22;21083;50.898;4.902;2023-05-07T02:01:50;16.30;99.90
20654;DHT22;21083;50.898;4.902;2023-05-07T02:04:17;16.30;99.90
20654;DHT22;21083;50.898;4.902;2023-05-07T02:06:44;16.30;99.90
20654;DHT22;21083;50.898;4.902;2023-05-07T02:09:11;16.30;99.90
20654;DHT22;21083;50.898;4.902;2023-05-07T02:11:38;16.40;99.90
20654;DHT22;21083;50.898;4.902;2023-05-07T02:14:05;16.40;99.90
20654;DHT22;21083;50.898;4.902;2023-05-07T02:16:33;16.40;99.90
20654;DHT22;21083;50.898;4.902;2023-05-07T02:19:00;16.40;99.90
20654;DHT22;21083;50.898;4.902;2023-05-07T02:21:27;16.40;99.90
20654;DHT22;21083;50.898;4.902;2023-05-07T02:23:54;16.40;99.90
20654;DHT22;21083;50.898;4.902;2023-05-07T02:26:21;16.40;99.90
20654;DHT22;21083;50.898;4.902;2023-05-07T02:28:48;16.40;99.90
20654;DHT22;21083;50.898;4.902;2023-05-07T02:31:16;16.40;99.90
20654;DHT22;21083;50.898;4.902;2023-05-07T02:33:44;16.40;99.90
20654;DHT22;21083;50.898;4.902;2023-05-07T02:36:12;16.40;99.90
20654;DHT22;21083;50.898;4.902;2023-05-07T02:38:39;16.40;99.90
20654;DHT22;21083;50.898;4.902;2023-05-07T02:41:06;16.30;99.90
20654;DHT22;21083;50.898;4.902;2023-05-07T02:43:33;16.40;99.90
20654;DHT22;21083;50.898;4.902;2023-05-07T02:46:01;16.40;99.90
20654;DHT22;21083;50.898;4.902;2023-05-07T02:48:28;16.30;99.90
20654;DHT22;21083;50.898;4.902;2023-05-07T02:50:57;16.30;99.90
20654;DHT22;21083;50.898;4.902;2023-05-07T02:53:24;16.30;99.90
20654;DHT22;21083;50.898;4.902;2023-05-07T02:55:52;16.30;99.90
20654;DHT22;21083;50.898;4.902;2023-05-07T02:58:19;16.30;99.90
20654;DHT22;21083;50.898;4.902;2023-05-07T03:00:46;16.30;99.90
20654;DHT22;21083;50.898;4.902;2023-05-07T03:03:13;16.30;99.90
20654;DHT22;21083;50.898;4.902;2023-05-07T03:05:41;16.30;99.90
20654;DHT22;21083;50.898;4.902;2023-05-07T03:08:09;16.30;99.90
20654;DHT22;21083;50.898;4.902;2023-05-07T03:10:36;16.30;99.90
20654;DHT22;21083;50.898;4.902;2023-05-07T03:13:04;16.20;99.90
20654;DHT22;21083;50.898;4.902;2023-05-07T03:15:31;16.20;99.90
20654;DHT22;21083;50.898;4.902;2023-05-07T03:17:58;16.20;99.90
20654;DHT22;21083;50.898;4.902;2023-05-07T03:20:25;16.10;99.90
20654;DHT22;21083;50.898;4.902;2023-05-07T03:22:52;16.10;99.90
20654;DHT22;21083;50.898;4.902;2023-05-07T03:25:21;16.10;99.90
20654;DHT22;21083;50.898;4.902;2023-05-07T03:27:48;16.10;99.90
20654;DHT22;21083;50.898;4.902;2023-05-07T03:30:15;16.10;99.90
20654;DHT22;21083;50.898;4.902;2023-05-07T03:32:43;16.10;99.90
20654;DHT22;21083;50.898;4.902;2023-05-07T03:35:10;16.00;99.90
20654;DHT22;21083;50.898;4.902;2023-05-07T03:37:37;16.00;99.90
20654;DHT22;21083;50.898;4.902;2023-05-07T03:40:05;16.00;99.90
20654;DHT22;21083;50.898;4.902;2023-05-07T03:42:34;16.00;99.90
20654;DHT22;21083;50.898;4.902;2023-05-07T03:45:02;16.10;99.90
20654;DHT22;21083;50.898;4.902;2023-05-07T03:47:29;16.10;99.90
20654;DHT22;21083;50.898;4.902;2023-05-07T03:49:56;16.10;99.90
20654;DHT22;21083;50.898;4.902;2023-05-07T03:52:23;16.10;99.90
20654;DHT22;21083;50.898;4.902;2023-05-07T03:54:52;16.10;99.90
20654;DHT22;21083;50.898;4.902;2023-05-07T03:57:20;16.10;99.90
20654;DHT22;21083;50.898;4.902;2023-05-07T03:59:48;16.10;99.90
20654;DHT22;21083;50.898;4.902;2023-05-07T04:02:15;16.00;99.90
20654;DHT22;21083;50.898;4.902;2023-05-07T04:04:42;16.00;99.90
20654;DHT22;21083;50.898;4.902;2023-05-07T04:07:09;16.00;99.90
20654;DHT22;21083;50.898;4.902;2023-05-07T04:09:36;16.00;99.90
20654;DHT22;21083;50.898;4.902;2023-05-07T04:12:03;16.00;99.90
20654;DHT22;21083;50.898;4.902;2023-05-07T04:14:30;16.00;99.90
20654;DHT22;21083;50.898;4.902;2023-05-07T04:17:00;16.10;99.90
20654;DHT22;21083;50.898;4.902;2023-05-07T04:19:28;16.10;99.90
20654;DHT22;21083;50.898;4.902;2023-05-07T04:21:55;16.10;99.90
20654;DHT22;21083;50.898;4.902;2023-05-07T04:24:22;16.10;99.90
20654;DHT22;21083;50.898;4.902;2023-05-07T04:26:49;16.10;99.90
20654;DHT22;21083;50.898;4.902;2023-05-07T04:29:16;16.10;99.90
20654;DHT22;21083;50.898;4.902;2023-05-07T04:31:43;16.00;99.90
20654;DHT22;21083;50.898;4.902;2023-05-07T04:34:12;16.00;99.90
20654;DHT22;21083;50.898;4.902;2023-05-07T04:36:39;16.00;99.90
20654;DHT22;21083;50.898;4.902;2023-05-07T04:39:07;16.00;99.90
20654;DHT22;21083;50.898;4.902;2023-05-07T04:41:35;16.00;99.90
20654;DHT22;21083;50.898;4.902;2023-05-07T04:44:02;15.90;99.90
20654;DHT22;21083;50.898;4.902;2023-05-07T04:46:32;16.00;99.90
20654;DHT22;21083;50.898;4.902;2023-05-07T04:48:59;16.00;99.90
20654;DHT22;21083;50.898;4.902;2023-05-07T04:51:27;16.00;99.90
20654;DHT22;21083;50.898;4.902;2023-05-07T04:53:54;15.90;99.90
20654;DHT22;21083;50.898;4.902;2023-05-07T04:56:21;15.90;99.90
20654;DHT22;21083;50.898;4.902;2023-05-07T04:58:48;15.90;99.90
20654;DHT22;21083;50.898;4.902;2023-05-07T05:01:15;15.90;99.90
20654;DHT22;21083;50.898;4.902;2023-05-07T05:03:42;15.90;99.90
20654;DHT22;21083;50.898;4.902;2023-05-07T05:06:09;15.90;99.90
20654;DHT22;21083;50.898;4.902;2023-05-07T05:08:38;15.90;99.90
20654;DHT22;21083;50.898;4.902;2023-05-07T05:11:05;15.90;99.90
20654;DHT22;21083;50.898;4.902;2023-05-07T05:13:32;15.90;99.90
20654;DHT22;21083;50.898;4.902;2023-05-07T05:15:59;15.90;99.90
20654;DHT22;21083;50.898;4.902;2023-05-07T05:18:26;16.00;99.90
20654;DHT22;21083;50.898;4.902;2023-05-07T05:24:15;16.00;99.90
20654;DHT22;21083;50.898;4.902;2023-05-07T05:26:55;16.10;99.90
20654;DHT22;21083;50.898;4.902;2023-05-07T05:29:32;16.10;99.90
20654;DHT22;21083;50.898;4.902;2023-05-07T05:32:11;16.10;99.90
20654;DHT22;21083;50.898;4.902;2023-05-07T05:34:56;16.20;99.90
20654;DHT22;21083;50.898;4.902;2023-05-07T05:37:31;16.20;99.90
20654;DHT22;21083;50.898;4.902;2023-05-07T05:40:01;16.30;99.90
20654;DHT22;21083;50.898;4.902;2023-05-07T05:42:37;16.40;99.90
20654;DHT22;21083;50.898;4.902;2023-05-07T05:45:13;16.50;99.90
20654;DHT22;21083;50.898;4.902;2023-05-07T05:47:49;16.50;99.90
20654;DHT22;21083;50.898;4.902;2023-05-07T05:50:24;16.60;99.90
20654;DHT22;21083;50.898;4.902;2023-05-07T05:52:58;16.60;99.90
20654;DHT22;21083;50.898;4.902;2023-05-07T05:55:40;16.70;99.90
20654;DHT22;21083;50.898;4.902;2023-05-07T05:58:08;16.70;99.90
20654;DHT22;21083;50.898;4.902;2023-05-07T06:00:36;16.80;99.90
20654;DHT22;21083;50.898;4.902;2023-05-07T06:03:03;16.80;99.90
20654;DHT22;21083;50.898;4.902;2023-05-07T06:05:30;16.80;99.90
20654;DHT22;21083;50.898;4.902;2023-05-07T06:07:57;16.90;99.90
20654;DHT22;21083;50.898;4.902;2023-05-07T06:10:24;16.90;99.90
20654;DHT22;21083;50.898;4.902;2023-05-07T06:12:54;17.00;99.90
20654;DHT22;21083;50.898;4.902;2023-05-07T06:15:21;17.10;99.90
20654;DHT22;21083;50.898;4.902;2023-05-07T06:17:48;17.10;99.90
20654;DHT22;21083;50.898;4.902;2023-05-07T06:20:15;17.30;99.90
20654;DHT22;21083;50.898;4.902;2023-05-07T06:22:42;17.30;99.90
20654;DHT22;21083;50.898;4.902;2023-05-07T06:25:09;17.50;99.90
20654;DHT22;21083;50.898;4.902;2023-05-07T06:27:36;17.60;99.90
20654;DHT22;21083;50.898;4.902;2023-05-07T06:30:07;17.70;99.90
20654;DHT22;21083;50.898;4.902;2023-05-07T06:32:35;17.70;99.90
20654;DHT22;21083;50.898;4.902;2023-05-07T06:35:02;17.70;99.90
20654;DHT22;21083;50.898;4.902;2023-05-07T06:37:29;17.70;99.90
20654;DHT22;21083;50.898;4.902;2023-05-07T06:39:55;17.80;99.90
20654;DHT22;21083;50.898;4.902;2023-05-07T06:42:22;17.90;99.90
20654;DHT22;21083;50.898;4.902;2023-05-07T06:44:49;17.90;99.90
20654;DHT22;21083;50.898;4.902;2023-05-07T06:47:18;17.90;99.90
20654;DHT22;21083;50.898;4.902;2023-05-07T06:49:45;18.00;99.90
20654;DHT22;21083;50.898;4.902;2023-05-07T06:52:12;18.10;99.90
20654;DHT22;21083;50.898;4.902;2023-05-07T06:54:39;18.20;99.90
20654;DHT22;21083;50.898;4.902;2023-05-07T06:57:06;18.20;99.90
20654;DHT22;21083;50.898;4.902;2023-05-07T06:59:33;18.20;99.90
20654;DHT22;21083;50.898;4.902;2023-05-07T07:02:00;18.20;99.90
20654;DHT22;21083;50.898;4.902;2023-05-07T07:04:28;18.00;99.90
20654;DHT22;21083;50.898;4.902;2023-05-07T07:06:55;17.90;99.90
20654;DHT22;21083;50.898;4.902;2023-05-07T07:09:22;17.90;99.90
20654;DHT22;21083;50.898;4.902;2023-05-07T07:11:49;17.70;99.90
20654;DHT22;21083;50.898;4.902;2023-05-07T07:14:16;17.80;99.90
20654;DHT22;21083;50.898;4.902;2023-05-07T07:16:43;17.90;99.90
20654;DHT22;21083;50.898;4.902;2023-05-07T07:19:12;17.90;99.90
20654;DHT22;21083;50.898;4.902;2023-05-07T07:21:42;18.00;99.90
20654;DHT22;21083;50.898;4.902;2023-05-07T07:24:10;18.00;99.90
20654;DHT22;21083;50.898;4.902;2023-05-07T07:26:37;17.90;99.90
20654;DHT22;21083;50.898;4.902;2023-05-07T07:29:05;18.00;99.90
20654;DHT22;21083;50.898;4.902;2023-05-07T07:31:33;18.10;99.90
20654;DHT22;21083;50.898;4.902;2023-05-07T07:34:00;18.20;99.90
20654;DHT22;21083;50.898;4.902;2023-05-07T07:36:27;18.10;99.90
20654;DHT22;21083;50.898;4.902;2023-05-07T07:38:55;18.20;99.90
20654;DHT22;21083;50.898;4.902;2023-05-07T07:41:22;18.30;99.90
20654;DHT22;21083;50.898;4.902;2023-05-07T07:43:50;18.20;99.90
20654;DHT22;21083;50.898;4.902;2023-05-07T07:46:17;18.20;99.90
20654;DHT22;21083;50.898;4.902;2023-05-07T07:48:44;18.30;99.90
20654;DHT22;21083;50.898;4.902;2023-05-07T07:51:11;18.00;99.90
20654;DHT22;21083;50.898;4.902;2023-05-07T07:53:38;18.10;99.90
20654;DHT22;21083;50.898;4.902;2023-05-07T07:56:06;18.20;99.90
20654;DHT22;21083;50.898;4.902;2023-05-07T07:58:33;18.40;99.90
20654;DHT22;21083;50.898;4.902;2023-05-07T08:01:02;18.30;99.90
20654;DHT22;21083;50.898;4.902;2023-05-07T08:03:29;18.20;99.90
20654;DHT22;21083;50.898;4.902;2023-05-07T08:05:57;18.10;99.90
20654;DHT22;21083;50.898;4.902;2023-05-07T08:08:24;18.30;99.90
20654;DHT22;21083;50.898;4.902;2023-05-07T08:10:51;18.40;99.90
20654;DHT22;21083;50.898;4.902;2023-05-07T08:13:20;18.50;99.90
20654;DHT22;21083;50.898;4.902;2023-05-07T08:15:48;18.50;99.90
20654;DHT22;21083;50.898;4.902;2023-05-07T08:18:15;18.50;99.90
20654;DHT22;21083;50.898;4.902;2023-05-07T08:20:42;18.50;99.90
20654;DHT22;21083;50.898;4.902;2023-05-07T08:23:09;18.60;99.90
20654;DHT22;21083;50.898;4.902;2023-05-07T08:25:36;18.70;99.90
20654;DHT22;21083;50.898;4.902;2023-05-07T08:28:03;18.70;99.90
20654;DHT22;21083;50.898;4.902;2023-05-07T08:30:31;18.80;99.90
20654;DHT22;21083;50.898;4.902;2023-05-07T08:33:00;18.70;99.90
20654;DHT22;21083;50.898;4.902;2023-05-07T08:35:27;18.60;99.90
20654;DHT22;21083;50.898;4.902;2023-05-07T08:37:54;18.60;99.90
20654;DHT22;21083;50.898;4.902;2023-05-07T08:40:22;18.40;99.90
20654;DHT22;21083;50.898;4.902;2023-05-07T08:42:52;18.50;99.90
20654;DHT22;21083;50.898;4.902;2023-05-07T08:45:23;18.60;99.90
20654;DHT22;21083;50.898;4.902;2023-05-07T08:47:54;18.70;99.90
20654;DHT22;21083;50.898;4.902;2023-05-07T08:50:22;18.80;99.90
20654;DHT22;21083;50.898;4.902;2023-05-07T08:52:49;18.80;99.90
20654;DHT22;21083;50.898;4.902;2023-05-07T08:55:16;18.70;99.90
20654;DHT22;21083;50.898;4.902;2023-05-07T08:57:44;18.80;99.90
20654;DHT22;21083;50.898;4.902;2023-05-07T09:00:13;18.90;99.90
20654;DHT22;21083;50.898;4.902;2023-05-07T09:02:40;19.10;99.90
20654;DHT22;21083;50.898;4.902;2023-05-07T09:05:09;18.70;99.90
20654;DHT22;21083;50.898;4.902;2023-05-07T09:07:36;18.50;99.90
20654;DHT22;21083;50.898;4.902;2023-05-07T09:10:04;18.30;99.90
20654;DHT22;21083;50.898;4.902;2023-05-07T09:12:37;18.30;99.90
20654;DHT22;21083;50.898;4.902;2023-05-07T09:15:06;18.40;99.90
20654;DHT22;21083;50.898;4.902;2023-05-07T09:17:33;18.60;99.90
20654;DHT22;21083;50.898;4.902;2023-05-07T09:20:02;18.50;99.90
20654;DHT22;21083;50.898;4.902;2023-05-07T09:22:33;18.50;99.90
20654;DHT22;21083;50.898;4.902;2023-05-07T09:25:00;18.70;99.90
20654;DHT22;21083;50.898;4.902;2023-05-07T09:27:28;18.70;99.90
20654;DHT22;21083;50.898;4.902;2023-05-07T09:29:56;18.70;99.90
20654;DHT22;21083;50.898;4.902;2023-05-07T09:32:25;18.50;99.90
20654;DHT22;21083;50.898;4.902;2023-05-07T09:34:52;18.40;99.90
20654;DHT22;21083;50.898;4.902;2023-05-07T09:37:19;18.50;99.90
20654;DHT22;21083;50.898;4.902;2023-05-07T09:39:49;18.40;99.90
20654;DHT22;21083;50.898;4.902;2023-05-07T09:42:23;18.50;99.90
20654;DHT22;21083;50.898;4.902;2023-05-07T09:44:54;18.50;99.90
20654;DHT22;21083;50.898;4.902;2023-05-07T09:47:24;18.40;99.90
20654;DHT22;21083;50.898;4.902;2023-05-07T09:49:55;18.30;99.90
20654;DHT22;21083;50.898;4.902;2023-05-07T09:52:23;18.30;99.90
20654;DHT22;21083;50.898;4.902;2023-05-07T09:54:53;18.40;99.90
20654;DHT22;21083;50.898;4.902;2023-05-07T09:57:20;18.30;99.90
20654;DHT22;21083;50.898;4.902;2023-05-07T09:59:49;18.30;99.90
20654;DHT22;21083;50.898;4.902;2023-05-07T10:02:19;18.30;99.90
20654;DHT22;21083;50.898;4.902;2023-05-07T10:04:48;18.20;99.90
20654;DHT22;21083;50.898;4.902;2023-05-07T10:07:16;18.20;99.90
20654;DHT22;21083;50.898;4.902;2023-05-07T10:09:43;18.40;99.90
20654;DHT22;21083;50.898;4.902;2023-05-07T10:12:13;18.40;99.90
20654;DHT22;21083;50.898;4.902;2023-05-07T10:14:40;18.30;99.90
20654;DHT22;21083;50.898;4.902;2023-05-07T10:17:08;18.10;99.90
20654;DHT22;21083;50.898;4.902;2023-05-07T10:19:38;18.10;99.90
20654;DHT22;21083;50.898;4.902;2023-05-07T10:22:08;18.30;99.90
20654;DHT22;21083;50.898;4.902;2023-05-07T10:24:36;18.60;99.90
20654;DHT22;21083;50.898;4.902;2023-05-07T10:27:07;18.80;99.90
20654;DHT22;21083;50.898;4.902;2023-05-07T10:29:45;18.70;99.90
20654;DHT22;21083;50.898;4.902;2023-05-07T10:32:30;18.70;99.90
20654;DHT22;21083;50.898;4.902;2023-05-07T10:35:02;18.60;99.90
20654;DHT22;21083;50.898;4.902;2023-05-07T10:37:30;18.70;99.90
20654;DHT22;21083;50.898;4.902;2023-05-07T10:39:57;18.80;99.90
20654;DHT22;21083;50.898;4.902;2023-05-07T10:42:24;18.80;99.90
20654;DHT22;21083;50.898;4.902;2023-05-07T10:44:53;18.80;99.90
20654;DHT22;21083;50.898;4.902;2023-05-07T10:47:20;18.90;99.90
20654;DHT22;21083;50.898;4.902;2023-05-07T10:50:20;18.80;99.90
20654;DHT22;21083;50.898;4.902;2023-05-07T10:53:23;18.90;99.90
20654;DHT22;21083;50.898;4.902;2023-05-07T10:56:25;18.80;99.90
20654;DHT22;21083;50.898;4.902;2023-05-07T10:58:53;18.90;99.90
20654;DHT22;21083;50.898;4.902;2023-05-07T11:01:52;18.80;99.90
20654;DHT22;21083;50.898;4.902;2023-05-07T11:04:20;18.40;99.90
20654;DHT22;21083;50.898;4.902;2023-05-07T11:10:00;18.90;99.90
20654;DHT22;21083;50.898;4.902;2023-05-07T11:12:59;19.00;99.90
20654;DHT22;21083;50.898;4.902;2023-05-07T11:15:40;19.00;99.90
20654;DHT22;21083;50.898;4.902;2023-05-07T11:18:11;19.00;99.90
20654;DHT22;21083;50.898;4.902;2023-05-07T11:20:59;18.90;99.90
20654;DHT22;21083;50.898;4.902;2023-05-07T11:23:57;19.20;99.90
20654;DHT22;21083;50.898;4.902;2023-05-07T11:26:26;19.40;99.90
20654;DHT22;21083;50.898;4.902;2023-05-07T11:28:54;19.30;99.90
20654;DHT22;21083;50.898;4.902;2023-05-07T11:31:23;19.20;99.90
20654;DHT22;21083;50.898;4.902;2023-05-07T11:33:53;19.30;99.90
20654;DHT22;21083;50.898;4.902;2023-05-07T11:36:23;19.10;99.90
20654;DHT22;21083;50.898;4.902;2023-05-07T11:38:50;19.00;99.90
20654;DHT22;21083;50.898;4.902;2023-05-07T11:41:18;19.20;99.90
20654;DHT22;21083;50.898;4.902;2023-05-07T11:43:55;19.10;99.90
20654;DHT22;21083;50.898;4.902;2023-05-07T11:46:22;19.30;99.90
20654;DHT22;21083;50.898;4.902;2023-05-07T11:48:49;19.10;99.90
20654;DHT22;21083;50.898;4.902;2023-05-07T11:51:22;19.20;99.90
20654;DHT22;21083;50.898;4.902;2023-05-07T11:53:50;18.80;99.90
20654;DHT22;21083;50.898;4.902;2023-05-07T11:56:18;18.90;99.90
20654;DHT22;21083;50.898;4.902;2023-05-07T11:58:47;18.80;99.90
20654;DHT22;21083;50.898;4.902;2023-05-07T12:01:14;19.10;99.90
20654;DHT22;21083;50.898;4.902;2023-05-07T12:03:43;19.10;99.90
20654;DHT22;21083;50.898;4.902;2023-05-07T12:06:12;18.90;99.90
20654;DHT22;21083;50.898;4.902;2023-05-07T12:08:41;19.10;99.90
20654;DHT22;21083;50.898;4.902;2023-05-07T12:11:09;19.40;99.90
20654;DHT22;21083;50.898;4.902;2023-05-07T12:13:37;19.60;99.90
20654;DHT22;21083;50.898;4.902;2023-05-07T12:16:05;19.60;99.90
20654;DHT22;21083;50.898;4.902;2023-05-07T12:18:33;19.70;99.90
20654;DHT22;21083;50.898;4.902;2023-05-07T12:21:01;19.80;99.90
20654;DHT22;21083;50.898;4.902;2023-05-07T12:23:28;19.80;99.90
20654;DHT22;21083;50.898;4.902;2023-05-07T12:25:57;19.70;99.90
20654;DHT22;21083;50.898;4.902;2023-05-07T12:28:25;19.70;99.90
20654;DHT22;21083;50.898;4.902;2023-05-07T12:30:52;19.70;99.90
20654;DHT22;21083;50.898;4.902;2023-05-07T12:33:24;19.80;99.90
20654;DHT22;21083;50.898;4.902;2023-05-07T12:35:54;19.90;99.90
20654;DHT22;21083;50.898;4.902;2023-05-07T12:38:21;20.00;99.90
20654;DHT22;21083;50.898;4.902;2023-05-07T12:40:50;19.90;99.90
20654;DHT22;21083;50.898;4.902;2023-05-07T12:43:20;20.00;99.90
20654;DHT22;21083;50.898;4.902;2023-05-07T12:45:49;19.80;99.90
20654;DHT22;21083;50.898;4.902;2023-05-07T12:48:16;19.80;99.90
20654;DHT22;21083;50.898;4.902;2023-05-07T12:50:43;19.90;99.90
20654;DHT22;21083;50.898;4.902;2023-05-07T12:53:11;19.80;99.90
20654;DHT22;21083;50.898;4.902;2023-05-07T12:55:42;19.50;99.90
20654;DHT22;21083;50.898;4.902;2023-05-07T12:58:15;19.50;99.90
20654;DHT22;21083;50.898;4.902;2023-05-07T13:00:45;19.70;99.90
20654;DHT22;21083;50.898;4.902;2023-05-07T13:03:21;19.80;99.90
20654;DHT22;21083;50.898;4.902;2023-05-07T13:05:49;19.50;99.90
20654;DHT22;21083;50.898;4.902;2023-05-07T13:08:27;19.60;99.90
20654;DHT22;21083;50.898;4.902;2023-05-07T13:10:54;19.90;99.90
20654;DHT22;21083;50.898;4.902;2023-05-07T13:13:21;19.90;99.90
20654;DHT22;21083;50.898;4.902;2023-05-07T13:15:50;20.10;99.90
20654;DHT22;21083;50.898;4.902;2023-05-07T13:18:17;20.20;99.90
20654;DHT22;21083;50.898;4.902;2023-05-07T13:20:44;20.30;99.90
20654;DHT22;21083;50.898;4.902;2023-05-07T13:23:11;20.30;99.90
20654;DHT22;21083;50.898;4.902;2023-05-07T13:25:38;20.30;99.90
20654;DHT22;21083;50.898;4.902;2023-05-07T13:28:05;20.40;99.90
20654;DHT22;21083;50.898;4.902;2023-05-07T13:30:32;20.20;99.90
20654;DHT22;21083;50.898;4.902;2023-05-07T13:33:01;20.10;99.90
20654;DHT22;21083;50.898;4.902;2023-05-07T13:35:28;20.30;99.90
20654;DHT22;21083;50.898;4.902;2023-05-07T13:37:55;20.40;99.90
20654;DHT22;21083;50.898;4.902;2023-05-07T13:40:22;20.20;99.90
20654;DHT22;21083;50.898;4.902;2023-05-07T13:42:50;20.30;99.90
20654;DHT22;21083;50.898;4.902;2023-05-07T13:45:17;20.30;99.90
20654;DHT22;21083;50.898;4.902;2023-05-07T13:47:45;20.10;99.90
20654;DHT22;21083;50.898;4.902;2023-05-07T13:50:13;20.00;99.90
20654;DHT22;21083;50.898;4.902;2023-05-07T13:52:41;19.90;99.90
20654;DHT22;21083;50.898;4.902;2023-05-07T13:55:11;19.60;99.90
20654;DHT22;21083;50.898;4.902;2023-05-07T13:57:38;19.60;99.90
20654;DHT22;21083;50.898;4.902;2023-05-07T14:00:06;19.80;99.90
20654;DHT22;21083;50.898;4.902;2023-05-07T14:02:34;19.90;99.90
20654;DHT22;21083;50.898;4.902;2023-05-07T14:05:01;20.00;99.90
20654;DHT22;21083;50.898;4.902;2023-05-07T14:07:29;20.00;99.90
20654;DHT22;21083;50.898;4.902;2023-05-07T14:09:57;20.10;99.90
20654;DHT22;21083;50.898;4.902;2023-05-07T14:12:24;20.20;99.90
20654;DHT22;21083;50.898;4.902;2023-05-07T14:14:51;20.30;99.90
20654;DHT22;21083;50.898;4.902;2023-05-07T14:17:18;20.20;99.90
20654;DHT22;21083;50.898;4.902;2023-05-07T14:19:45;19.90;99.90
20654;DHT22;21083;50.898;4.902;2023-05-07T14:22:13;20.10;99.90
20654;DHT22;21083;50.898;4.902;2023-05-07T14:24:42;20.30;99.90
20654;DHT22;21083;50.898;4.902;2023-05-07T14:27:09;20.30;99.90
20654;DHT22;21083;50.898;4.902;2023-05-07T14:29:36;20.30;99.90
20654;DHT22;21083;50.898;4.902;2023-05-07T14:32:03;20.30;99.90
20654;DHT22;21083;50.898;4.902;2023-05-07T14:34:31;20.50;99.90
20654;DHT22;21083;50.898;4.902;2023-05-07T14:36:59;20.60;99.90
20654;DHT22;21083;50.898;4.902;2023-05-07T14:39:27;20.40;99.90
20654;DHT22;21083;50.898;4.902;2023-05-07T14:41:55;20.30;99.90
20654;DHT22;21083;50.898;4.902;2023-05-07T14:44:23;20.40;99.90
20654;DHT22;21083;50.898;4.902;2023-05-07T14:46:50;20.60;99.90
20654;DHT22;21083;50.898;4.902;2023-05-07T14:49:17;20.50;99.90
20654;DHT22;21083;50.898;4.902;2023-05-07T14:51:44;20.40;99.90
20654;DHT22;21083;50.898;4.902;2023-05-07T14:54:12;20.30;99.90
20654;DHT22;21083;50.898;4.902;2023-05-07T14:56:39;20.40;99.90
20654;DHT22;21083;50.898;4.902;2023-05-07T14:59:08;20.50;99.90
20654;DHT22;21083;50.898;4.902;2023-05-07T15:01:36;20.60;99.90
20654;DHT22;21083;50.898;4.902;2023-05-07T15:04:04;20.60;99.90
20654;DHT22;21083;50.898;4.902;2023-05-07T15:06:31;20.50;99.90
20654;DHT22;21083;50.898;4.902;2023-05-07T15:08:59;20.60;99.90
20654;DHT22;21083;50.898;4.902;2023-05-07T15:11:26;20.50;99.90
20654;DHT22;21083;50.898;4.902;2023-05-07T15:13:53;20.70;99.90
20654;DHT22;21083;50.898;4.902;2023-05-07T15:16:21;20.80;99.90
20654;DHT22;21083;50.898;4.902;2023-05-07T15:18:48;20.80;99.90
20654;DHT22;21083;50.898;4.902;2023-05-07T15:21:15;20.90;99.90
20654;DHT22;21083;50.898;4.902;2023-05-07T15:23:42;20.90;99.90
20654;DHT22;21083;50.898;4.902;2023-05-07T15:26:10;20.90;99.90
20654;DHT22;21083;50.898;4.902;2023-05-07T15:28:37;21.00;99.90
20654;DHT22;21083;50.898;4.902;2023-05-07T15:31:04;21.00;99.90
20654;DHT22;21083;50.898;4.902;2023-05-07T15:33:34;21.00;99.90
20654;DHT22;21083;50.898;4.902;2023-05-07T15:36:01;20.90;99.90
20654;DHT22;21083;50.898;4.902;2023-05-07T15:38:29;20.90;99.90
20654;DHT22;21083;50.898;4.902;2023-05-07T15:40:56;20.90;99.90
20654;DHT22;21083;50.898;4.902;2023-05-07T15:43:23;20.80;99.90
20654;DHT22;21083;50.898;4.902;2023-05-07T15:45:50;20.90;99.90